Time;durP1;ratioP1;P1;durP2;ratioP2;P2;SDS_P1;SDS_P2;PMS_P1;PMS_P2;Temp;Humidity;BMP_temperature;BMP_pressure;BME280_temperature;BME280_humidity;BME280_pressure;Samples;Min_cycle;Max_cycle;Signal;HPM_P1;HPM_P2
2022/01/11 00:01:16;;;;;;;75.75;55.20;;;3.20;99.90;;;;;;5051573;28;20227;-64
2022/01/11 00:03:43;;;;;;;93.68;57.03;;;3.20;99.90;;;;;;5052020;28;20304;-64
2022/01/11 00:06:23;;;;;;;93.38;59.40;;;3.30;99.90;;;;;;5052155;28;20232;-64
2022/01/11 00:08:53;;;;;;;83.68;52.78;;;3.30;99.90;;;;;;5042080;28;20237;-64
2022/01/11 00:11:21;;;;;;;94.60;61.25;;;3.40;99.90;;;;;;5052314;28;20663;-64
2022/01/11 00:13:48;;;;;;;83.63;56.40;;;3.30;99.90;;;;;;5054329;28;20540;-64
2022/01/11 00:16:15;;;;;;;88.90;59.40;;;3.40;99.90;;;;;;5053415;28;20235;-64
2022/01/11 00:18:42;;;;;;;84.80;55.78;;;3.30;99.90;;;;;;5054071;28;20217;-64
2022/01/11 00:21:09;;;;;;;90.35;59.47;;;3.40;99.90;;;;;;5053315;28;20225;-64
2022/01/11 00:26:22;;;;;;;89.00;57.10;;;3.30;99.90;;;;;;5052666;28;20278;-64
2022/01/11 00:28:49;;;;;;;92.38;58.55;;;3.30;99.90;;;;;;5053705;28;20224;-63
2022/01/11 00:31:16;;;;;;;84.32;55.20;;;3.20;99.60;;;;;;5056858;28;20235;-63
2022/01/11 00:33:45;;;;;;;91.65;56.75;;;3.10;99.60;;;;;;5053932;28;20543;-63
2022/01/11 00:36:13;;;;;;;89.65;57.38;;;3.00;99.80;;;;;;5053483;28;20235;-63
2022/01/11 00:38:42;;;;;;;95.93;61.85;;;2.90;99.90;;;;;;5053609;28;20225;-63
2022/01/11 00:41:12;;;;;;;98.05;61.20;;;2.80;99.90;;;;;;5040293;28;20237;-64
2022/01/11 00:43:42;;;;;;;79.95;53.90;;;2.80;99.90;;;;;;5053594;28;20223;-64
2022/01/11 00:46:10;;;;;;;89.20;57.13;;;2.80;99.90;;;;;;5046172;28;20694;-64
2022/01/11 00:48:39;;;;;;;90.53;60.20;;;2.80;99.90;;;;;;5048289;28;20228;-64
2022/01/11 00:51:07;;;;;;;101.32;61.55;;;2.80;99.90;;;;;;5052818;28;20675;-64
2022/01/11 00:53:34;;;;;;;99.93;63.35;;;2.80;99.90;;;;;;5053488;28;20221;-64
2022/01/11 00:56:01;;;;;;;101.93;64.85;;;2.60;99.90;;;;;;5053619;28;20236;-64
2022/01/11 00:58:28;;;;;;;91.18;60.88;;;2.60;99.90;;;;;;5053025;28;20567;-64
2022/01/11 01:00:57;;;;;;;99.25;62.95;;;2.60;99.90;;;;;;5053247;28;20687;-64
2022/01/11 01:03:23;;;;;;;92.18;62.58;;;2.60;99.90;;;;;;5052964;28;20236;-64
2022/01/11 01:05:50;;;;;;;90.40;60.10;;;2.40;99.90;;;;;;5053220;28;20683;-64
2022/01/11 01:08:17;;;;;;;91.38;62.15;;;2.40;99.90;;;;;;5052127;28;20697;-64
2022/01/11 01:10:47;;;;;;;94.80;62.40;;;2.30;99.90;;;;;;5052531;28;20231;-64
2022/01/11 01:13:17;;;;;;;95.68;59.60;;;2.30;99.90;;;;;;5040104;28;20331;-64
2022/01/11 01:15:47;;;;;;;98.97;61.72;;;2.30;99.90;;;;;;5053126;28;20225;-64
2022/01/11 01:18:16;;;;;;;93.90;60.47;;;2.30;99.90;;;;;;5052664;28;20224;-64
2022/01/11 01:20:44;;;;;;;101.75;59.75;;;2.20;99.90;;;;;;5052945;28;20229;-64
2022/01/11 01:23:11;;;;;;;105.85;62.40;;;2.10;99.90;;;;;;5051898;28;20231;-63
2022/01/11 01:25:38;;;;;;;104.45;65.93;;;2.00;99.90;;;;;;5045959;28;20221;-64
2022/01/11 01:28:06;;;;;;;106.38;66.13;;;2.00;99.90;;;;;;5039273;28;20805;-62
2022/01/11 01:30:33;;;;;;;108.93;66.28;;;1.90;99.90;;;;;;5056598;28;20235;-64
2022/01/11 01:33:00;;;;;;;114.22;65.32;;;1.90;99.90;;;;;;5039647;28;20244;-64
2022/01/11 01:35:34;;;;;;;103.55;63.50;;;1.90;99.90;;;;;;5052236;28;20228;-63
2022/01/11 01:38:01;;;;;;;106.45;66.38;;;1.90;99.90;;;;;;5052756;28;20685;-63
2022/01/11 01:40:35;;;;;;;96.88;61.95;;;1.80;99.90;;;;;;5052270;28;20229;-64
2022/01/11 01:43:03;;;;;;;98.32;62.05;;;1.80;99.90;;;;;;5052847;28;20230;-64
2022/01/11 01:45:29;;;;;;;116.53;67.80;;;1.80;99.90;;;;;;5052152;28;20267;-64
2022/01/11 01:47:58;;;;;;;111.82;64.45;;;1.90;99.90;;;;;;5052613;28;20682;-64
2022/01/11 01:50:25;;;;;;;102.03;61.10;;;1.90;99.90;;;;;;5051604;28;20237;-64
2022/01/11 01:52:54;;;;;;;85.00;56.63;;;1.90;99.90;;;;;;5052524;28;20543;-64
2022/01/11 01:55:22;;;;;;;97.15;58.25;;;1.90;99.90;;;;;;5052090;28;20727;-64
2022/01/11 01:57:50;;;;;;;100.63;59.75;;;2.00;99.90;;;;;;5052071;28;20217;-64
2022/01/11 02:00:18;;;;;;;105.45;62.22;;;2.00;99.90;;;;;;5052018;28;20243;-64
2022/01/11 02:02:45;;;;;;;103.35;57.78;;;2.00;99.90;;;;;;5050928;28;20217;-64
2022/01/11 02:05:12;;;;;;;104.35;59.55;;;2.10;99.90;;;;;;5040938;28;20229;-64
2022/01/11 02:07:39;;;;;;;98.47;58.08;;;2.10;99.90;;;;;;5031780;28;20222;-64
2022/01/11 02:10:09;;;;;;;111.38;60.92;;;2.10;99.90;;;;;;5031765;28;20564;-64
2022/01/11 02:12:36;;;;;;;100.00;57.25;;;2.10;99.90;;;;;;5041744;28;20225;-65
2022/01/11 02:15:04;;;;;;;104.00;59.95;;;2.10;99.90;;;;;;5050664;28;20232;-64
2022/01/11 02:17:32;;;;;;;98.22;58.90;;;2.20;99.90;;;;;;5051392;28;20224;-64
2022/01/11 02:19:59;;;;;;;92.25;53.78;;;2.20;99.90;;;;;;5051728;28;20324;-64
2022/01/11 02:22:28;;;;;;;93.28;52.50;;;2.20;99.90;;;;;;5051703;28;20225;-64
2022/01/11 02:24:55;;;;;;;90.10;53.67;;;2.20;99.90;;;;;;5041839;28;20238;-64
2022/01/11 02:27:22;;;;;;;95.15;55.88;;;2.10;99.90;;;;;;5036060;28;20687;-64
2022/01/11 02:29:49;;;;;;;101.35;55.10;;;2.00;99.90;;;;;;5036335;28;20231;-65
2022/01/11 02:32:16;;;;;;;98.55;56.72;;;1.90;99.90;;;;;;5069556;28;20233;-62
2022/01/11 02:34:43;;;;;;;101.38;54.17;;;1.90;99.90;;;;;;5056031;28;20243;-65
2022/01/11 02:37:10;;;;;;;95.50;54.33;;;1.90;99.90;;;;;;5056010;28;20235;-65
2022/01/11 02:39:38;;;;;;;101.20;53.47;;;2.00;99.90;;;;;;5055930;28;20228;-62
2022/01/11 02:42:06;;;;;;;96.95;54.40;;;2.00;99.90;;;;;;5055612;28;20224;-63
2022/01/11 02:44:33;;;;;;;90.53;51.83;;;2.00;99.90;;;;;;5050338;28;23158;-63
2022/01/11 02:47:00;;;;;;;87.75;51.25;;;2.10;99.90;;;;;;5034929;28;20232;-63
2022/01/11 02:49:27;;;;;;;96.32;53.95;;;2.10;99.90;;;;;;5033766;28;20235;-63
2022/01/11 02:51:54;;;;;;;94.20;52.28;;;2.10;99.90;;;;;;5034236;28;20240;-64
2022/01/11 02:54:21;;;;;;;88.65;50.47;;;2.10;99.90;;;;;;5033875;28;20248;-63
2022/01/11 02:56:50;;;;;;;89.90;49.60;;;2.20;99.90;;;;;;5034264;28;20217;-63
2022/01/11 02:59:17;;;;;;;85.20;51.30;;;2.20;99.90;;;;;;5033835;28;20565;-62
2022/01/11 03:01:44;;;;;;;92.53;52.17;;;2.20;99.90;;;;;;5041379;28;20225;-64
2022/01/11 03:04:10;;;;;;;86.13;50.78;;;2.30;99.90;;;;;;5040124;28;20236;-63
2022/01/11 03:06:37;;;;;;;85.85;50.60;;;2.30;99.90;;;;;;5035409;28;20221;-64
2022/01/11 03:09:04;;;;;;;84.82;48.30;;;2.10;99.90;;;;;;5035737;28;20664;-63
2022/01/11 03:11:33;;;;;;;89.15;49.75;;;2.10;99.90;;;;;;5036699;28;20227;-64
2022/01/11 03:14:04;;;;;;;87.07;49.28;;;2.00;99.90;;;;;;5055655;28;20329;-64
2022/01/11 03:16:31;;;;;;;96.78;51.72;;;1.90;99.90;;;;;;5055245;28;20723;-64
2022/01/11 03:18:58;;;;;;;79.30;43.70;;;1.70;99.90;;;;;;5038495;28;20236;-64
2022/01/11 03:21:28;;;;;;;78.55;44.00;;;1.70;99.90;;;;;;5054945;28;20686;-64
2022/01/11 03:23:56;;;;;;;90.22;46.58;;;1.80;99.90;;;;;;5048927;28;20217;-64
2022/01/11 03:26:22;;;;;;;86.13;44.90;;;1.80;99.90;;;;;;5036819;28;20308;-64
2022/01/11 03:28:50;;;;;;;82.63;46.55;;;1.80;99.90;;;;;;5035546;28;20227;-63
2022/01/11 03:31:22;;;;;;;93.43;48.15;;;1.80;99.90;;;;;;5055910;28;20235;-63
2022/01/11 03:33:49;;;;;;;87.32;44.95;;;1.90;99.90;;;;;;5074982;28;20299;-63
2022/01/11 03:36:16;;;;;;;85.10;46.15;;;1.90;99.90;;;;;;5074179;28;20234;-64
2022/01/11 03:38:43;;;;;;;83.70;42.95;;;1.90;99.90;;;;;;5074966;28;20928;-64
2022/01/11 03:41:11;;;;;;;81.40;42.35;;;1.90;99.90;;;;;;5074905;28;20241;-64
2022/01/11 03:43:38;;;;;;;71.65;40.63;;;2.00;99.90;;;;;;5074808;28;20228;-64
2022/01/11 03:46:05;;;;;;;84.40;43.63;;;1.90;99.90;;;;;;5074861;28;20234;-64
2022/01/11 03:48:33;;;;;;;87.68;43.20;;;2.00;99.90;;;;;;5074511;28;20239;-64
2022/01/11 03:51:00;;;;;;;90.82;46.15;;;1.90;99.90;;;;;;5075151;28;20234;-64
2022/01/11 03:53:32;;;;;;;80.78;42.80;;;1.90;99.90;;;;;;5065359;28;20225;-64
2022/01/11 03:56:21;;;;;;;83.20;44.63;;;2.00;99.90;;;;;;5054726;28;20571;-64
2022/01/11 03:58:49;;;;;;;82.93;43.63;;;2.00;99.90;;;;;;5054643;28;21354;-64
2022/01/11 04:01:17;;;;;;;85.97;46.50;;;2.00;99.90;;;;;;5054683;28;20239;-64
2022/01/11 04:03:45;;;;;;;84.43;42.40;;;2.00;99.90;;;;;;5052378;28;20543;-63
2022/01/11 04:06:16;;;;;;;83.95;41.45;;;2.10;99.90;;;;;;5034549;28;20226;-63
2022/01/11 04:08:43;;;;;;;78.38;41.70;;;2.10;99.90;;;;;;5034386;28;20237;-63
2022/01/11 04:11:10;;;;;;;83.10;44.38;;;2.20;99.90;;;;;;5034517;28;20233;-64
2022/01/11 04:13:37;;;;;;;81.78;46.38;;;2.20;99.90;;;;;;5052490;28;20287;-64
2022/01/11 04:16:04;;;;;;;90.85;44.95;;;2.20;99.90;;;;;;5054530;28;20564;-64
2022/01/11 04:18:31;;;;;;;85.30;43.40;;;2.20;99.90;;;;;;5053768;28;20713;-64
2022/01/11 04:20:59;;;;;;;88.85;42.78;;;2.30;99.90;;;;;;5053983;28;20239;-64
2022/01/11 04:23:26;;;;;;;79.60;39.70;;;2.20;99.90;;;;;;5051534;28;20225;-64
2022/01/11 04:25:53;;;;;;;82.78;42.67;;;2.20;99.90;;;;;;5034101;28;20245;-64
2022/01/11 04:28:23;;;;;;;83.68;41.80;;;2.30;99.90;;;;;;5048283;28;20222;-64
2022/01/11 04:30:49;;;;;;;75.75;40.75;;;2.30;99.90;;;;;;5060406;28;20663;-64
2022/01/11 04:33:16;;;;;;;78.88;40.45;;;2.30;99.90;;;;;;5073739;28;20319;-64
2022/01/11 04:35:48;;;;;;;66.88;38.10;;;2.30;99.90;;;;;;5073547;28;20232;-64
2022/01/11 04:38:17;;;;;;;71.70;37.05;;;2.30;99.90;;;;;;5073760;28;20224;-63
2022/01/11 04:40:44;;;;;;;68.95;33.92;;;2.20;99.90;;;;;;5073421;28;20228;-64
2022/01/11 04:43:10;;;;;;;70.03;37.38;;;2.20;99.90;;;;;;5073836;28;20732;-64
2022/01/11 04:45:38;;;;;;;68.80;40.00;;;2.20;99.90;;;;;;5073358;28;20299;-64
2022/01/11 04:48:06;;;;;;;61.83;34.83;;;2.20;99.90;;;;;;5073564;28;20327;-64
2022/01/11 04:50:33;;;;;;;62.40;35.17;;;2.20;99.90;;;;;;5073213;28;20232;-64
2022/01/11 04:53:00;;;;;;;71.63;35.58;;;2.30;99.90;;;;;;5073670;28;20232;-64
2022/01/11 04:55:29;;;;;;;62.88;34.95;;;2.30;99.90;;;;;;5073078;28;20220;-64
2022/01/11 04:57:56;;;;;;;64.40;34.85;;;2.30;99.90;;;;;;5073503;28;20231;-64
2022/01/11 05:00:24;;;;;;;62.55;32.63;;;2.40;99.90;;;;;;5073373;28;20238;-63
2022/01/11 05:02:51;;;;;;;55.35;30.95;;;2.30;99.90;;;;;;5073054;28;20220;-64
2022/01/11 05:05:18;;;;;;;59.30;34.85;;;2.40;99.90;;;;;;5073360;28;20231;-64
2022/01/11 05:07:47;;;;;;;61.63;35.78;;;2.40;99.90;;;;;;5072858;28;20702;-64
2022/01/11 05:10:14;;;;;;;76.65;40.13;;;2.50;99.90;;;;;;5073338;28;20313;-65
2022/01/11 05:12:42;;;;;;;66.82;36.83;;;2.50;99.90;;;;;;5061457;28;20686;-64
2022/01/11 05:15:11;;;;;;;69.70;37.75;;;2.60;99.90;;;;;;5053260;28;20225;-64
2022/01/11 05:17:38;;;;;;;70.50;38.17;;;2.60;99.90;;;;;;5052869;28;20225;-64
2022/01/11 05:20:07;;;;;;;76.55;38.80;;;2.50;99.90;;;;;;5053182;28;20232;-64
2022/01/11 05:22:35;;;;;;;65.32;34.67;;;2.60;99.90;;;;;;5052725;28;20290;-64
2022/01/11 05:25:01;;;;;;;65.90;34.40;;;2.60;99.90;;;;;;5037661;28;20233;-64
2022/01/11 05:27:29;;;;;;;70.60;36.63;;;2.70;99.90;;;;;;5033129;28;20832;-64
2022/01/11 05:29:57;;;;;;;64.97;35.55;;;2.60;99.90;;;;;;5033011;28;20252;-64
2022/01/11 05:32:24;;;;;;;65.75;35.20;;;2.60;99.90;;;;;;5057551;28;20225;-64
2022/01/11 05:34:51;;;;;;;65.20;33.83;;;2.60;99.90;;;;;;5052751;28;20663;-64
2022/01/11 05:37:18;;;;;;;63.60;34.72;;;2.60;99.90;;;;;;5052944;28;20229;-64
2022/01/11 05:39:45;;;;;;;60.63;35.50;;;2.60;99.90;;;;;;5052403;28;20244;-64
2022/01/11 05:42:12;;;;;;;73.22;35.47;;;2.60;99.90;;;;;;5052940;28;20221;-64
2022/01/11 05:44:39;;;;;;;59.20;33.40;;;2.70;99.90;;;;;;5052248;28;20272;-64
2022/01/11 05:47:07;;;;;;;72.38;39.15;;;2.70;99.90;;;;;;5052883;28;20222;-64
2022/01/11 05:49:34;;;;;;;71.25;36.85;;;2.70;99.90;;;;;;5052370;28;20229;-64
2022/01/11 05:52:00;;;;;;;73.13;38.55;;;2.70;99.90;;;;;;5052473;28;20223;-64
2022/01/11 05:54:27;;;;;;;71.38;37.22;;;2.60;99.90;;;;;;5052691;28;20230;-64
2022/01/11 05:56:54;;;;;;;68.40;36.50;;;2.60;99.90;;;;;;5052315;28;20234;-65
2022/01/11 05:59:21;;;;;;;67.68;36.97;;;2.60;99.90;;;;;;5052025;28;20240;-64
2022/01/11 06:01:48;;;;;;;75.40;36.10;;;2.60;99.90;;;;;;5035862;28;20225;-64
2022/01/11 06:04:16;;;;;;;66.13;35.45;;;2.60;99.90;;;;;;5032814;28;20233;-64
2022/01/11 06:06:43;;;;;;;62.13;33.10;;;2.60;99.90;;;;;;5032227;28;20230;-64
2022/01/11 06:09:10;;;;;;;63.65;33.97;;;2.50;99.90;;;;;;5032842;28;20581;-64
2022/01/11 06:11:36;;;;;;;67.80;35.53;;;2.40;99.90;;;;;;5032139;28;20235;-64
2022/01/11 06:14:04;;;;;;;71.30;34.92;;;2.40;99.90;;;;;;5032428;28;20237;-64
2022/01/11 06:16:30;;;;;;;68.13;36.72;;;2.50;99.90;;;;;;5032591;28;20704;-64
2022/01/11 06:18:57;;;;;;;59.75;32.25;;;2.50;99.90;;;;;;5033283;28;20230;-64
2022/01/11 06:21:25;;;;;;;64.38;34.72;;;2.50;99.90;;;;;;5052600;28;20222;-64
2022/01/11 06:23:52;;;;;;;71.35;34.90;;;2.50;99.90;;;;;;5046061;28;20246;-64
2022/01/11 06:26:19;;;;;;;66.15;37.42;;;2.50;99.90;;;;;;5032347;28;20232;-64
2022/01/11 06:28:46;;;;;;;70.15;36.20;;;2.60;99.90;;;;;;5031998;28;20228;-64
2022/01/11 06:31:13;;;;;;;60.70;35.03;;;2.50;99.90;;;;;;5052424;28;20227;-64
2022/01/11 06:33:40;;;;;;;68.60;33.05;;;2.50;99.90;;;;;;5071528;28;20252;-64
2022/01/11 06:36:10;;;;;;;64.45;36.50;;;2.60;99.90;;;;;;5072346;28;20231;-64
2022/01/11 06:38:38;;;;;;;63.80;34.85;;;2.70;99.90;;;;;;5071954;28;20240;-64
2022/01/11 06:41:05;;;;;;;65.53;35.38;;;2.60;99.90;;;;;;5072164;28;20573;-64
2022/01/11 06:43:32;;;;;;;64.22;34.67;;;2.70;99.90;;;;;;5072274;28;20224;-64
2022/01/11 06:45:59;;;;;;;73.07;35.45;;;2.70;99.90;;;;;;5071811;28;20242;-64
2022/01/11 06:48:26;;;;;;;54.85;32.03;;;2.70;99.90;;;;;;5072342;28;20563;-64
2022/01/11 06:50:53;;;;;;;63.15;31.85;;;2.70;99.90;;;;;;5071671;28;20243;-64
2022/01/11 06:53:20;;;;;;;68.93;34.50;;;2.70;99.90;;;;;;5071941;28;20718;-64
2022/01/11 06:55:50;;;;;;;58.33;32.47;;;2.70;99.90;;;;;;5071744;28;20239;-64
2022/01/11 06:58:18;;;;;;;59.25;33.63;;;2.60;99.90;;;;;;5072055;28;20233;-64
2022/01/11 07:00:44;;;;;;;68.40;34.92;;;2.60;99.90;;;;;;5056953;28;20226;-64
2022/01/11 07:03:11;;;;;;;55.47;30.00;;;2.50;99.90;;;;;;5031923;28;20231;-64
2022/01/11 07:05:38;;;;;;;58.90;33.08;;;2.50;99.90;;;;;;5031900;28;20229;-64
2022/01/11 07:08:06;;;;;;;62.13;35.83;;;2.50;99.90;;;;;;5031785;28;20709;-64
2022/01/11 07:10:32;;;;;;;55.22;30.67;;;2.50;99.90;;;;;;5033118;28;20563;-64
2022/01/11 07:13:02;;;;;;;61.50;33.08;;;2.60;99.90;;;;;;5035090;28;20232;-64
2022/01/11 07:15:29;;;;;;;56.22;30.63;;;2.40;99.90;;;;;;5035741;28;20253;-65
2022/01/11 07:17:56;;;;;;;56.13;29.45;;;2.40;99.90;;;;;;5035071;28;20225;-64
2022/01/11 07:20:23;;;;;;;58.35;31.48;;;2.40;99.90;;;;;;5048385;28;20225;-64
2022/01/11 07:22:50;;;;;;;52.22;31.70;;;2.30;99.90;;;;;;5054899;28;20663;-65
2022/01/11 07:25:17;;;;;;;57.58;30.23;;;2.40;99.90;;;;;;5037791;28;20217;-64
2022/01/11 07:27:44;;;;;;;53.90;30.05;;;2.40;99.90;;;;;;5034975;28;20218;-64
2022/01/11 07:30:13;;;;;;;52.25;31.08;;;2.40;99.90;;;;;;5038075;28;20236;-64
2022/01/11 07:32:40;;;;;;;50.00;29.52;;;2.30;99.90;;;;;;5074232;28;20230;-64
2022/01/11 07:35:07;;;;;;;53.90;30.10;;;2.30;99.90;;;;;;5075342;28;20220;-65
2022/01/11 07:37:34;;;;;;;52.08;29.67;;;2.30;99.90;;;;;;5075061;28;20561;-64
2022/01/11 07:40:01;;;;;;;57.00;29.60;;;2.30;99.90;;;;;;5074444;28;20230;-64
2022/01/11 07:42:28;;;;;;;51.45;28.55;;;2.40;99.90;;;;;;5075129;28;20227;-64
2022/01/11 07:44:54;;;;;;;45.20;28.10;;;2.30;99.90;;;;;;5074640;28;20224;-64
2022/01/11 07:47:23;;;;;;;43.17;27.10;;;2.40;99.90;;;;;;5075142;28;20234;-64
2022/01/11 07:49:50;;;;;;;49.92;27.58;;;2.40;99.90;;;;;;5074588;28;20234;-64
2022/01/11 07:52:17;;;;;;;50.08;29.10;;;2.40;99.90;;;;;;5074756;28;20686;-64
2022/01/11 07:54:45;;;;;;;49.50;27.83;;;2.40;99.90;;;;;;5074278;28;20224;-64
2022/01/11 07:57:11;;;;;;;47.05;27.63;;;2.50;99.90;;;;;;5074851;28;20233;-64
2022/01/11 07:59:39;;;;;;;50.60;30.35;;;2.50;99.90;;;;;;5074629;28;20222;-64
2022/01/11 08:02:05;;;;;;;46.25;28.25;;;2.50;99.90;;;;;;5037248;28;20248;-65
2022/01/11 08:04:37;;;;;;;46.95;26.50;;;2.60;99.90;;;;;;5034891;28;20680;-65
2022/01/11 08:07:04;;;;;;;48.97;27.65;;;2.60;99.90;;;;;;5034291;28;20238;-64
2022/01/11 08:09:31;;;;;;;50.90;28.73;;;2.60;99.90;;;;;;5034519;28;20689;-64
2022/01/11 08:11:59;;;;;;;48.97;28.10;;;2.60;99.90;;;;;;5034137;28;20217;-64
2022/01/11 08:14:26;;;;;;;46.00;27.33;;;2.70;99.90;;;;;;5034452;28;20285;-64
2022/01/11 08:16:53;;;;;;;49.97;28.17;;;2.70;99.90;;;;;;5034050;28;20227;-64
2022/01/11 08:19:24;;;;;;;48.35;29.95;;;2.70;99.90;;;;;;5038677;28;20217;-64
2022/01/11 08:21:53;;;;;;;47.03;27.40;;;2.70;99.90;;;;;;5053218;28;20320;-65
2022/01/11 08:24:21;;;;;;;49.70;27.70;;;2.70;99.90;;;;;;5044455;28;20230;-64
2022/01/11 08:26:48;;;;;;;46.38;27.27;;;2.70;99.90;;;;;;5034129;28;20249;-64
2022/01/11 08:29:17;;;;;;;50.53;28.83;;;2.80;99.90;;;;;;5034253;28;20237;-64
2022/01/11 08:31:44;;;;;;;44.72;26.27;;;2.80;99.90;;;;;;5062243;28;20243;-64
2022/01/11 08:34:14;;;;;;;47.47;25.88;;;2.80;99.90;;;;;;5074110;28;20224;-64
2022/01/11 08:36:42;;;;;;;45.72;25.48;;;2.80;99.90;;;;;;5074059;28;20217;-64
2022/01/11 08:39:11;;;;;;;49.25;28.02;;;2.80;99.90;;;;;;5073272;28;20243;-64
2022/01/11 08:41:38;;;;;;;41.78;26.45;;;2.80;99.90;;;;;;5073788;28;20225;-64
2022/01/11 08:44:06;;;;;;;45.10;26.65;;;2.80;99.90;;;;;;5073340;28;20224;-64
2022/01/11 08:46:33;;;;;;;50.38;27.77;;;2.80;99.90;;;;;;5073621;28;20219;-63
2022/01/11 08:49:01;;;;;;;42.95;22.88;;;2.80;99.90;;;;;;5073662;28;20559;-64
2022/01/11 08:51:28;;;;;;;48.58;27.05;;;2.80;99.90;;;;;;5073677;28;20252;-64
2022/01/11 08:53:55;;;;;;;42.22;25.63;;;2.70;99.90;;;;;;5073162;28;20228;-63
2022/01/11 08:56:23;;;;;;;44.83;27.13;;;2.80;99.90;;;;;;5073529;28;20216;-64
2022/01/11 08:58:50;;;;;;;43.55;27.05;;;2.80;99.90;;;;;;5073142;28;20231;-64
2022/01/11 09:01:17;;;;;;;44.03;28.65;;;2.90;99.90;;;;;;5049827;28;20680;-64
2022/01/11 09:03:43;;;;;;;40.10;25.63;;;2.90;99.90;;;;;;5033608;28;20232;-64
2022/01/11 09:06:10;;;;;;;49.63;28.95;;;2.80;99.90;;;;;;5033226;28;20949;-65
2022/01/11 09:08:38;;;;;;;45.90;27.42;;;2.70;99.90;;;;;;5033647;28;20241;-64
2022/01/11 09:11:06;;;;;;;47.08;27.35;;;2.80;99.90;;;;;;5032830;28;20240;-64
2022/01/11 09:13:36;;;;;;;52.63;29.00;;;2.70;99.90;;;;;;5051610;28;20224;-64
2022/01/11 09:16:04;;;;;;;46.13;26.83;;;2.70;99.90;;;;;;5052966;28;20697;-64
2022/01/11 09:18:31;;;;;;;43.28;25.55;;;2.70;99.90;;;;;;5053195;28;20213;-63
2022/01/11 09:21:00;;;;;;;44.47;26.52;;;2.60;99.90;;;;;;5052745;28;20239;-63
2022/01/11 09:23:27;;;;;;;42.00;26.38;;;2.60;99.90;;;;;;5050786;28;20239;-63
2022/01/11 09:25:54;;;;;;;42.15;26.63;;;2.70;99.90;;;;;;5032824;28;20229;-64
2022/01/11 09:28:22;;;;;;;43.08;25.58;;;2.70;99.90;;;;;;5033051;28;20221;-63
2022/01/11 09:30:50;;;;;;;39.42;25.55;;;2.70;99.90;;;;;;5046048;28;20225;-63
2022/01/11 09:33:18;;;;;;;43.65;25.45;;;2.80;99.90;;;;;;5072121;28;20223;-63
2022/01/11 09:35:45;;;;;;;43.53;26.52;;;2.80;99.90;;;;;;5072938;28;20339;-63
2022/01/11 09:38:12;;;;;;;44.72;25.88;;;2.80;99.90;;;;;;5072665;28;20588;-64
2022/01/11 09:40:39;;;;;;;39.88;25.40;;;2.80;99.90;;;;;;5072803;28;20231;-63
2022/01/11 09:43:06;;;;;;;41.65;24.05;;;2.90;99.90;;;;;;5072508;28;20220;-63
2022/01/11 09:45:33;;;;;;;41.58;25.10;;;2.90;99.90;;;;;;5072922;28;20214;-64
2022/01/11 09:48:02;;;;;;;50.65;26.35;;;2.90;99.90;;;;;;5063706;28;20239;-64
2022/01/11 09:50:29;;;;;;;42.03;26.13;;;2.90;99.90;;;;;;5032729;28;20229;-64
2022/01/11 09:52:56;;;;;;;39.67;24.30;;;2.90;99.90;;;;;;5032327;28;20239;-64
2022/01/11 09:55:24;;;;;;;44.83;27.20;;;2.90;99.90;;;;;;5031665;28;20240;-64
2022/01/11 09:57:50;;;;;;;44.70;27.65;;;2.80;99.90;;;;;;5032506;28;20236;-63
2022/01/11 10:00:17;;;;;;;46.00;26.00;;;2.80;99.90;;;;;;5032598;28;20694;-63
2022/01/11 10:02:46;;;;;;;43.95;24.20;;;2.80;99.90;;;;;;5032666;28;20217;-64
2022/01/11 10:05:15;;;;;;;43.15;26.63;;;2.80;99.90;;;;;;5032324;28;20256;-64
2022/01/11 10:07:43;;;;;;;43.45;25.40;;;2.90;99.90;;;;;;5032729;28;20687;-65
2022/01/11 10:10:16;;;;;;;42.50;26.48;;;2.90;99.90;;;;;;5032368;28;20225;-64
2022/01/11 10:12:45;;;;;;;52.55;30.23;;;2.90;99.90;;;;;;5032512;28;20560;-64
2022/01/11 10:15:13;;;;;;;45.25;25.40;;;2.90;99.90;;;;;;5031907;28;20246;-64
2022/01/11 10:17:42;;;;;;;43.17;26.15;;;2.90;99.90;;;;;;5032430;28;20256;-64
2022/01/11 10:20:11;;;;;;;37.55;25.85;;;3.00;99.90;;;;;;5043009;28;20236;-63
2022/01/11 10:22:49;;;;;;;46.40;26.77;;;3.00;99.90;;;;;;5052431;28;20230;-64
2022/01/11 10:25:18;;;;;;;48.28;27.48;;;3.10;99.90;;;;;;5034554;28;20672;-63
2022/01/11 10:27:53;;;;;;;32.33;21.90;;;3.20;99.90;;;;;;5032543;28;20225;-64
2022/01/11 10:30:23;;;;;;;39.83;23.77;;;3.20;99.90;;;;;;5037327;28;20232;-64
2022/01/11 10:32:52;;;;;;;38.13;24.25;;;3.20;99.90;;;;;;5072142;28;20216;-64
2022/01/11 10:35:21;;;;;;;39.72;24.98;;;3.30;99.90;;;;;;5071885;28;20234;-63
2022/01/11 10:37:52;;;;;;;37.13;23.05;;;3.30;99.70;;;;;;5072240;28;20216;-64
2022/01/11 10:40:21;;;;;;;39.40;23.95;;;3.40;99.70;;;;;;5071967;28;20237;-64
2022/01/11 10:42:50;;;;;;;40.15;24.85;;;3.40;99.60;;;;;;5072124;28;20674;-64
2022/01/11 10:45:20;;;;;;;39.63;25.92;;;3.40;99.50;;;;;;5074678;28;20281;-64
2022/01/11 10:47:49;;;;;;;39.53;25.20;;;3.40;99.40;;;;;;5070995;28;20235;-64
2022/01/11 10:50:19;;;;;;;39.58;25.48;;;3.50;99.30;;;;;;5035545;28;20237;-64
2022/01/11 10:52:47;;;;;;;38.50;24.48;;;3.50;99.20;;;;;;5035833;28;20218;-64
2022/01/11 10:55:18;;;;;;;40.95;25.70;;;3.50;99.20;;;;;;5035558;28;20253;-64
2022/01/11 10:57:50;;;;;;;42.78;24.85;;;3.50;99.20;;;;;;5035946;28;20223;-64
2022/01/11 11:00:26;;;;;;;42.17;26.00;;;3.50;99.40;;;;;;5035417;28;20233;-63
2022/01/11 11:02:59;;;;;;;39.60;25.90;;;3.50;99.70;;;;;;5035902;28;20463;-64
2022/01/11 11:05:30;;;;;;;50.97;26.88;;;3.50;99.70;;;;;;5035632;28;20218;-64
2022/01/11 11:08:12;;;;;;;53.92;26.88;;;3.50;99.50;;;;;;5035823;28;20228;-64
2022/01/11 11:10:49;;;;;;;38.92;24.88;;;3.50;99.60;;;;;;5036089;28;20245;-63
2022/01/11 11:13:27;;;;;;;45.42;26.33;;;3.60;99.60;;;;;;5035149;28;20228;-64
2022/01/11 11:15:55;;;;;;;38.10;25.80;;;3.60;99.50;;;;;;5035142;28;20236;-64
2022/01/11 11:18:33;;;;;;;44.05;26.33;;;3.60;99.70;;;;;;5035805;28;20221;-65
2022/01/11 11:21:15;;;;;;;37.20;24.70;;;3.60;99.70;;;;;;5053062;28;20225;-64
2022/01/11 11:23:42;;;;;;;38.33;23.90;;;3.60;99.30;;;;;;5050862;28;20233;-64
2022/01/11 11:26:10;;;;;;;39.75;24.60;;;3.60;99.20;;;;;;5035119;28;20226;-64
2022/01/11 11:28:38;;;;;;;38.63;25.73;;;3.60;99.10;;;;;;5035392;28;20229;-64
2022/01/11 11:31:06;;;;;;;39.08;25.25;;;3.60;99.20;;;;;;5052555;28;20567;-64
2022/01/11 11:33:34;;;;;;;44.30;25.35;;;3.60;99.30;;;;;;5075002;28;20708;-64
2022/01/11 11:36:01;;;;;;;41.35;24.02;;;3.50;99.20;;;;;;5074566;28;20224;-64
2022/01/11 11:38:32;;;;;;;38.85;24.30;;;3.50;99.70;;;;;;5075189;28;20220;-64
2022/01/11 11:41:01;;;;;;;35.03;25.35;;;3.40;99.20;;;;;;5074462;28;20225;-64
2022/01/11 11:43:30;;;;;;;35.70;23.95;;;3.50;99.40;;;;;;5075015;28;20225;-63
2022/01/11 11:45:58;;;;;;;39.72;24.13;;;3.50;99.20;;;;;;5074648;28;20236;-63
2022/01/11 11:48:26;;;;;;;41.80;23.95;;;3.50;99.20;;;;;;5059309;28;20313;-63
2022/01/11 11:50:57;;;;;;;34.97;22.10;;;3.60;99.30;;;;;;5034904;28;20253;-63
2022/01/11 11:53:28;;;;;;;42.03;25.20;;;3.60;98.80;;;;;;5034768;28;20648;-63
2022/01/11 11:56:20;;;;;;;38.25;26.35;;;3.60;98.80;;;;;;5034038;28;20244;-63
2022/01/11 11:58:51;;;;;;;43.80;26.90;;;3.70;99.10;;;;;;5034797;28;20218;-64
2022/01/11 12:01:42;;;;;;;38.30;24.58;;;3.60;99.00;;;;;;5034772;28;20230;-63
2022/01/11 12:04:11;;;;;;;41.70;25.23;;;3.70;99.10;;;;;;5065681;28;21022;-64
2022/01/11 12:06:38;;;;;;;37.20;25.35;;;3.70;99.00;;;;;;5054460;28;20659;-64
2022/01/11 12:09:07;;;;;;;37.38;24.73;;;3.80;98.80;;;;;;5065410;28;20239;-64
2022/01/11 12:11:39;;;;;;;37.65;23.95;;;3.80;98.70;;;;;;5052151;28;20221;-64
2022/01/11 12:14:07;;;;;;;41.42;23.33;;;3.90;98.80;;;;;;5044656;28;20239;-63
2022/01/11 12:16:41;;;;;;;36.22;23.42;;;3.90;98.70;;;;;;5059047;28;20647;-64
2022/01/11 12:19:35;;;;;;;31.20;21.50;;;3.90;98.50;;;;;;5068517;28;20230;-64
2022/01/11 12:22:42;;;;;;;35.58;22.77;;;4.00;98.30;;;;;;5052864;28;20233;-64
2022/01/11 12:25:28;;;;;;;37.80;23.88;;;3.90;98.00;;;;;;4991116;28;20319;-66
2022/01/11 12:28:02;;;;;;;41.92;26.90;;;3.90;98.10;;;;;;4975279;28;20232;-66
2022/01/11 12:30:31;;;;;;;40.47;26.33;;;3.90;98.00;;;;;;5018592;28;20227;-67
2022/01/11 12:33:19;;;;;;;52.67;31.70;;;3.90;98.10;;;;;;5046777;28;20234;-62
2022/01/11 12:35:57;;;;;;;94.60;51.38;;;3.90;98.00;;;;;;5053582;28;20290;-68
2022/01/11 12:38:28;;;;;;;48.05;26.80;;;3.90;98.10;;;;;;5051643;28;20213;-65
2022/01/11 12:40:55;;;;;;;38.45;23.75;;;3.90;98.20;;;;;;5039557;28;21004;-66
2022/01/11 12:43:40;;;;;;;40.80;25.45;;;3.90;98.30;;;;;;5033857;28;20226;-67
2022/01/11 12:46:10;;;;;;;39.13;24.65;;;3.90;98.30;;;;;;5033819;28;20218;-66